createdAt,value
2023-04-18T00:03:01.596Z,6.50
2023-04-18T00:06:13.896Z,6.40
2023-04-18T00:09:24.693Z,6.50
2023-04-18T00:12:34.464Z,6.50
2023-04-18T00:15:44.612Z,6.40
2023-04-18T00:18:53.978Z,6.20
2023-04-18T00:22:02.974Z,6.10
2023-04-18T00:25:12.904Z,6.00
2023-04-18T00:28:21.324Z,5.90
2023-04-18T00:31:30.804Z,5.70
2023-04-18T00:34:41.570Z,5.60
2023-04-18T00:37:49.986Z,5.50
2023-04-18T00:40:59.810Z,5.50
2023-04-18T00:44:08.274Z,5.50
2023-04-18T00:47:17.499Z,5.40
2023-04-18T00:50:26.172Z,5.40
2023-04-18T00:53:34.816Z,5.50
2023-04-18T00:56:44.759Z,5.40
2023-04-18T00:59:53.618Z,5.20
2023-04-18T01:03:02.250Z,5.10
2023-04-18T01:06:11.158Z,5.00
2023-04-18T01:09:21.225Z,4.90
2023-04-18T01:12:30.973Z,4.90
2023-04-18T01:15:41.797Z,5.00
2023-04-18T01:18:50.295Z,4.90
2023-04-18T01:21:58.839Z,4.80
2023-04-18T01:25:12.792Z,4.60
2023-04-18T01:28:22.865Z,4.50
2023-04-18T01:31:31.427Z,4.60
2023-04-18T01:34:39.853Z,4.70
2023-04-18T01:37:48.578Z,4.70
2023-04-18T01:40:58.288Z,4.70
2023-04-18T01:44:06.936Z,4.50
2023-04-18T01:47:15.288Z,4.40
2023-04-18T01:50:23.966Z,4.40
2023-04-18T01:53:32.707Z,4.30
2023-04-18T01:56:43.420Z,4.20
2023-04-18T01:59:51.884Z,4.10
2023-04-18T02:03:00.662Z,4.10
2023-04-18T02:06:10.107Z,4.10
2023-04-18T02:09:18.565Z,4.00
2023-04-18T02:12:28.327Z,4.00
2023-04-18T02:15:36.990Z,4.00
2023-04-18T02:18:45.586Z,4.10
2023-04-18T02:21:55.777Z,4.10
2023-04-18T02:25:04.260Z,3.90
2023-04-18T02:28:14.119Z,3.80
2023-04-18T02:31:22.578Z,3.80
2023-04-18T02:34:32.473Z,3.80
2023-04-18T02:37:41.084Z,3.70
2023-04-18T02:40:49.419Z,3.60
2023-04-18T02:43:59.238Z,3.60
2023-04-18T02:47:07.755Z,3.50
2023-04-18T02:50:19.746Z,3.60
2023-04-18T02:53:28.349Z,3.60
2023-04-18T02:56:39.998Z,3.60
2023-04-18T03:00:16.989Z,3.60
2023-04-18T03:03:45.754Z,3.60
2023-04-18T03:07:20.377Z,3.50
2023-04-18T03:10:31.275Z,3.40
2023-04-18T03:13:39.747Z,3.40
2023-04-18T03:16:50.450Z,3.50
2023-04-18T03:20:04.249Z,3.50
2023-04-18T03:23:12.698Z,3.50
2023-04-18T03:26:21.419Z,3.40
2023-04-18T03:29:29.935Z,3.40
2023-04-18T03:32:42.154Z,3.20
2023-04-18T03:35:50.780Z,3.20
2023-04-18T03:38:59.252Z,3.20
2023-04-18T03:42:08.427Z,3.30
2023-04-18T03:45:17.768Z,3.10
2023-04-18T03:48:29.809Z,3.00
2023-04-18T03:51:47.716Z,3.10
2023-04-18T03:54:56.391Z,3.20
2023-04-18T03:58:08.885Z,3.20
2023-04-18T04:01:17.558Z,3.20
2023-04-18T04:04:27.394Z,3.20
2023-04-18T04:07:36.389Z,3.10
2023-04-18T04:10:45.396Z,3.10
2023-04-18T04:13:53.986Z,3.00
2023-04-18T04:17:07.388Z,2.90
2023-04-18T04:20:24.147Z,2.90
2023-04-18T04:23:38.582Z,2.90
2023-04-18T04:26:48.755Z,2.90
2023-04-18T04:30:02.668Z,3.00
2023-04-18T04:33:11.703Z,3.00
2023-04-18T04:36:23.179Z,3.00
2023-04-18T04:39:33.584Z,3.00
2023-04-18T04:43:02.212Z,3.00
2023-04-18T04:46:20.183Z,3.10
2023-04-18T04:49:31.428Z,3.10
2023-04-18T04:52:41.274Z,3.20
2023-04-18T04:55:50.435Z,3.30
2023-04-18T04:58:59.589Z,3.40
2023-04-18T05:02:15.066Z,3.40
2023-04-18T05:05:23.562Z,3.50
2023-04-18T05:08:33.295Z,3.60
2023-04-18T05:11:41.733Z,3.70
2023-04-18T05:14:50.171Z,3.80
2023-04-18T05:17:58.888Z,3.90
2023-04-18T05:21:07.326Z,4.00
2023-04-18T05:24:17.238Z,4.00
2023-04-18T05:27:25.849Z,4.20
2023-04-18T05:30:34.357Z,4.30
2023-04-18T05:33:42.752Z,4.50
2023-04-18T05:36:51.308Z,4.60
2023-04-18T05:40:01.271Z,4.80
2023-04-18T05:43:09.737Z,5.00
2023-04-18T05:46:18.197Z,5.20
2023-04-18T05:49:26.618Z,5.50
2023-04-18T05:52:34.996Z,5.60
2023-04-18T05:55:46.595Z,5.80
2023-04-18T05:58:55.012Z,6.00
2023-04-18T06:02:03.450Z,6.30
2023-04-18T06:05:12.194Z,6.60
2023-04-18T06:08:20.817Z,7.00
2023-04-18T06:11:33.514Z,7.30
2023-04-18T06:14:41.887Z,7.80
2023-04-18T06:17:50.266Z,8.50
2023-04-18T06:20:58.646Z,9.50
2023-04-18T06:24:07.613Z,14.00
2023-04-18T06:27:30.175Z,16.80
2023-04-18T06:30:38.975Z,18.50
2023-04-18T06:33:47.290Z,19.40
2023-04-18T06:36:55.877Z,20.20
2023-04-18T06:40:04.297Z,21.10
2023-04-18T06:43:13.984Z,21.90
2023-04-18T06:46:22.582Z,22.70
2023-04-18T06:49:31.046Z,23.40
2023-04-18T06:52:44.237Z,23.70
2023-04-18T06:55:52.668Z,23.90
2023-04-18T06:59:02.364Z,24.60
2023-04-18T07:02:10.735Z,25.10
2023-04-18T07:05:19.212Z,25.40
2023-04-18T07:08:27.551Z,26.00
2023-04-18T07:11:36.029Z,26.20
2023-04-18T07:14:45.863Z,26.30
2023-04-18T07:17:54.466Z,27.00
2023-04-18T07:21:02.926Z,27.10
2023-04-18T07:24:11.718Z,27.40
2023-04-18T07:27:20.223Z,27.50
2023-04-18T07:30:30.127Z,27.40
2023-04-18T07:33:39.153Z,26.80
2023-04-18T07:36:47.498Z,25.70
2023-04-18T07:39:55.831Z,25.40
2023-04-18T07:43:04.215Z,24.50
2023-04-18T07:46:14.159Z,24.60
2023-04-18T07:49:22.572Z,24.00
2023-04-18T07:52:30.957Z,24.20
2023-04-18T07:55:39.317Z,23.50
2023-04-18T07:58:47.593Z,24.00
2023-04-18T08:01:57.339Z,24.20
2023-04-18T08:05:06.482Z,23.80
2023-04-18T08:08:14.973Z,22.80
2023-04-18T08:11:23.256Z,23.40
2023-04-18T08:14:31.798Z,23.70
2023-04-18T08:17:44.156Z,23.60
2023-04-18T08:20:52.761Z,23.90
2023-04-18T08:24:01.306Z,24.10
2023-04-18T08:27:09.626Z,24.70
2023-04-18T08:30:18.020Z,24.60
2023-04-18T08:33:28.510Z,24.10
2023-04-18T08:36:37.075Z,24.30
2023-04-18T08:39:45.804Z,23.50
2023-04-18T08:42:54.903Z,23.50
2023-04-18T08:46:03.613Z,23.80
2023-04-18T08:49:13.752Z,22.10
2023-04-18T08:52:23.810Z,21.40
2023-04-18T08:55:33.698Z,22.10
2023-04-18T08:58:42.169Z,22.20
2023-04-18T09:01:56.757Z,22.40
2023-04-18T09:05:12.113Z,21.90
2023-04-18T09:08:25.170Z,22.10
2023-04-18T09:11:34.483Z,21.80
2023-04-18T09:14:47.035Z,21.90
2023-04-18T09:17:58.058Z,20.80
2023-04-18T09:21:19.886Z,19.90
2023-04-18T09:24:28.994Z,20.70
2023-04-18T09:27:37.676Z,20.70
2023-04-18T09:30:46.675Z,20.80
2023-04-18T09:33:56.836Z,21.50
2023-04-18T09:37:11.947Z,22.20
2023-04-18T09:40:21.228Z,22.10
2023-04-18T09:43:29.556Z,21.40
2023-04-18T09:46:38.281Z,20.80
2023-04-18T09:49:46.701Z,21.30
2023-04-18T09:52:56.953Z,21.50
2023-04-18T09:56:07.341Z,21.20
2023-04-18T09:59:21.896Z,21.30
2023-04-18T10:02:46.020Z,20.80
2023-04-18T10:05:57.108Z,20.40
2023-04-18T10:09:09.500Z,21.20
2023-04-18T10:12:19.152Z,21.10
2023-04-18T10:15:29.442Z,21.30
2023-04-18T10:18:38.269Z,21.50
2023-04-18T10:21:53.255Z,20.70
2023-04-18T10:25:03.674Z,20.70
2023-04-18T10:28:12.334Z,20.90
2023-04-18T10:31:21.892Z,21.00
2023-04-18T10:34:30.313Z,20.80
2023-04-18T10:37:50.951Z,20.80
2023-04-18T10:41:18.168Z,21.00
2023-04-18T10:44:27.622Z,21.10
2023-04-18T10:47:36.426Z,21.30
2023-04-18T10:51:13.042Z,19.90
2023-04-18T10:54:28.458Z,20.00
2023-04-18T10:57:43.906Z,20.60
2023-04-18T11:00:54.245Z,20.30
2023-04-18T11:04:02.707Z,19.60
2023-04-18T11:07:11.219Z,20.00
2023-04-18T11:10:21.039Z,19.30
2023-04-18T11:13:31.848Z,19.20
2023-04-18T11:16:41.012Z,19.80
2023-04-18T11:19:49.958Z,19.40
2023-04-18T11:23:00.233Z,19.40
2023-04-18T11:26:08.989Z,19.40
2023-04-18T11:29:20.189Z,19.30
2023-04-18T11:32:30.057Z,18.80
2023-04-18T11:35:39.889Z,18.60
2023-04-18T11:38:48.274Z,18.80
2023-04-18T11:41:57.315Z,19.10
2023-04-18T11:45:11.305Z,18.10
2023-04-18T11:48:20.032Z,18.30
2023-04-18T11:51:39.405Z,17.90
2023-04-18T11:54:47.789Z,18.00
2023-04-18T11:57:57.135Z,17.60
2023-04-18T12:01:19.623Z,17.30
2023-04-18T12:04:28.331Z,17.80
2023-04-18T12:07:39.458Z,18.20
2023-04-18T12:10:48.802Z,17.80
2023-04-18T12:13:58.224Z,17.50
2023-04-18T12:17:08.049Z,17.40
2023-04-18T12:20:16.592Z,17.70
2023-04-18T12:23:35.644Z,17.40
2023-04-18T12:26:46.920Z,17.40
2023-04-18T12:29:55.297Z,17.30
2023-04-18T12:33:06.727Z,17.60
2023-04-18T12:36:15.119Z,17.70
2023-04-18T12:39:23.457Z,17.60
2023-04-18T12:42:33.482Z,17.40
2023-04-18T12:45:41.850Z,17.30
2023-04-18T12:48:51.569Z,17.10
2023-04-18T12:51:59.945Z,17.20
2023-04-18T12:55:09.556Z,17.30
2023-04-18T12:58:20.497Z,17.40
2023-04-18T13:01:28.942Z,17.40
2023-04-18T13:04:39.327Z,17.30
2023-04-18T13:07:49.698Z,17.30
2023-04-18T13:10:58.943Z,17.00
2023-04-18T13:14:07.263Z,17.10
2023-04-18T13:17:15.587Z,17.10
2023-04-18T13:20:25.607Z,17.10
2023-04-18T13:23:34.059Z,17.20
2023-04-18T13:26:42.885Z,17.20
2023-04-18T13:29:51.221Z,17.10
2023-04-18T13:32:59.607Z,17.30
2023-04-18T13:36:10.028Z,17.10
2023-04-18T13:39:18.899Z,16.90
2023-04-18T13:42:27.223Z,16.90
2023-04-18T13:45:35.728Z,16.60
2023-04-18T13:48:44.271Z,16.60
2023-04-18T13:51:57.248Z,16.70
2023-04-18T13:55:06.217Z,16.90
2023-04-18T13:58:14.623Z,16.80
2023-04-18T14:01:23.750Z,16.60
2023-04-18T14:04:33.669Z,16.60
2023-04-18T14:07:43.513Z,16.90
2023-04-18T14:10:52.010Z,16.90
2023-04-18T14:14:00.545Z,16.80
2023-04-18T14:17:08.986Z,16.50
2023-04-18T14:20:19.331Z,16.50
2023-04-18T14:23:29.142Z,16.50
2023-04-18T14:26:37.915Z,16.50
2023-04-18T14:29:46.460Z,16.70
2023-04-18T14:32:55.985Z,16.60
2023-04-18T14:36:04.642Z,16.60
2023-04-18T14:39:14.644Z,16.50
2023-04-18T14:42:23.201Z,16.50
2023-04-18T14:45:34.939Z,16.50
2023-04-18T14:48:43.405Z,16.40
2023-04-18T14:51:51.897Z,16.40
2023-04-18T14:55:01.827Z,16.30
2023-04-18T14:58:10.259Z,16.20
2023-04-18T15:01:18.721Z,16.30
2023-04-18T15:04:28.139Z,16.20
2023-04-18T15:07:38.008Z,16.00
2023-04-18T15:10:47.804Z,16.00
2023-04-18T15:13:56.191Z,15.90
2023-04-18T15:17:06.144Z,15.80
2023-04-18T15:20:14.507Z,15.80
2023-04-18T15:23:23.082Z,15.90
2023-04-18T15:26:33.418Z,15.90
2023-04-18T15:29:41.820Z,16.00
2023-04-18T15:32:50.243Z,15.90
2023-04-18T15:35:58.673Z,15.90
2023-04-18T15:39:08.814Z,15.90
2023-04-18T15:42:18.616Z,15.80
2023-04-18T15:45:27.134Z,15.60
2023-04-18T15:48:36.518Z,15.70
2023-04-18T15:51:44.919Z,15.60
2023-04-18T15:54:53.505Z,15.60
2023-04-18T15:58:03.294Z,15.70
2023-04-18T16:01:16.092Z,15.70
2023-04-18T16:04:24.873Z,15.60
2023-04-18T16:07:33.284Z,15.60
2023-04-18T16:10:41.898Z,15.50
2023-04-18T16:13:51.715Z,15.50
2023-04-18T16:17:00.645Z,15.40
2023-04-18T16:20:10.160Z,15.40
2023-04-18T16:23:20.196Z,15.40
2023-04-18T16:26:29.008Z,15.30
2023-04-18T16:29:39.133Z,15.30
2023-04-18T16:32:49.724Z,15.30
2023-04-18T16:35:59.866Z,15.10
2023-04-18T16:39:08.325Z,15.00
2023-04-18T16:42:17.166Z,15.10
2023-04-18T16:45:26.890Z,15.00
2023-04-18T16:48:37.957Z,14.90
2023-04-18T16:51:46.325Z,14.80
2023-04-18T16:54:54.778Z,14.80
2023-04-18T16:58:03.130Z,14.80
2023-04-18T17:01:12.814Z,14.70
2023-04-18T17:04:21.251Z,14.60
2023-04-18T17:07:30.624Z,14.60
2023-04-18T17:10:39.236Z,14.60
2023-04-18T17:13:47.815Z,14.50
2023-04-18T17:16:57.676Z,14.40
2023-04-18T17:20:08.239Z,14.40
2023-04-18T17:23:16.558Z,14.40
2023-04-18T17:26:26.600Z,14.40
2023-04-18T17:29:34.983Z,14.30
2023-04-18T17:32:46.102Z,14.30
2023-04-18T17:35:54.880Z,14.20
2023-04-18T17:39:06.351Z,14.20
2023-04-18T17:42:14.793Z,14.10
2023-04-18T17:45:23.275Z,14.00
2023-04-18T17:48:33.077Z,14.00
2023-04-18T17:51:41.432Z,14.00
2023-04-18T17:54:49.745Z,13.90
2023-04-18T17:57:58.695Z,13.90
2023-04-18T18:01:16.033Z,13.90
2023-04-18T18:04:26.622Z,13.80
2023-04-18T18:07:37.579Z,13.80
2023-04-18T18:10:47.124Z,13.80
2023-04-18T18:13:57.657Z,13.80
2023-04-18T18:17:06.454Z,13.60
2023-04-18T18:20:19.328Z,13.50
2023-04-18T18:23:27.933Z,13.50
2023-04-18T18:26:37.518Z,13.40
2023-04-18T18:29:45.981Z,13.30
2023-04-18T18:32:55.829Z,13.20
2023-04-18T18:36:06.884Z,13.20
2023-04-18T18:39:16.601Z,13.20
2023-04-18T18:42:25.292Z,13.00
2023-04-18T18:45:34.008Z,12.90
2023-04-18T18:48:42.641Z,12.80
2023-04-18T18:51:53.526Z,12.70
2023-04-18T18:55:03.208Z,12.70
2023-04-18T18:58:11.793Z,12.60
2023-04-18T19:01:20.623Z,12.50
2023-04-18T19:04:29.074Z,12.40
2023-04-18T19:07:39.255Z,12.40
2023-04-18T19:10:47.622Z,12.30
2023-04-18T19:13:56.135Z,12.20
2023-04-18T19:17:07.449Z,12.10
2023-04-18T19:20:16.186Z,12.00
2023-04-18T19:23:27.791Z,12.00
2023-04-18T19:26:36.790Z,12.00
2023-04-18T19:29:45.243Z,11.90
2023-04-18T19:32:53.939Z,11.80
2023-04-18T19:36:02.389Z,11.70
2023-04-18T19:39:12.254Z,11.60
2023-04-18T19:42:20.983Z,11.50
2023-04-18T19:45:29.424Z,11.40
2023-04-18T19:48:37.953Z,11.40
2023-04-18T19:51:46.504Z,11.40
2023-04-18T19:54:56.587Z,11.40
2023-04-18T19:58:05.274Z,11.20
2023-04-18T20:01:14.294Z,11.20
2023-04-18T20:04:23.792Z,11.30
2023-04-18T20:07:32.398Z,11.10
2023-04-18T20:10:42.114Z,11.00
2023-04-18T20:13:54.532Z,11.00
2023-04-18T20:17:02.969Z,11.00
2023-04-18T20:20:12.276Z,11.00
2023-04-18T20:23:20.825Z,10.90
2023-04-18T20:26:31.361Z,10.90
2023-04-18T20:29:39.785Z,10.80
2023-04-18T20:32:48.160Z,10.70
2023-04-18T20:35:58.767Z,10.50
2023-04-18T20:39:07.233Z,10.50
2023-04-18T20:42:17.513Z,10.40
2023-04-18T20:45:27.475Z,10.30
2023-04-18T20:48:36.070Z,10.20
2023-04-18T20:51:44.523Z,10.30
2023-04-18T20:54:52.833Z,10.40
2023-04-18T20:58:02.607Z,10.30
2023-04-18T21:01:11.025Z,10.20
2023-04-18T21:04:19.628Z,10.20
2023-04-18T21:07:29.061Z,10.20
2023-04-18T21:10:37.840Z,10.10
2023-04-18T21:13:47.596Z,10.10
2023-04-18T21:16:57.338Z,10.10
2023-04-18T21:20:08.236Z,10.00
2023-04-18T21:23:16.649Z,10.00
2023-04-18T21:26:25.075Z,10.00
2023-04-18T21:29:34.974Z,9.80
2023-04-18T21:32:43.334Z,9.70
2023-04-18T21:35:51.736Z,9.60
2023-04-18T21:39:01.903Z,9.60
2023-04-18T21:42:12.100Z,9.60
2023-04-18T21:45:21.884Z,9.50
2023-04-18T21:48:30.207Z,9.50
2023-04-18T21:51:38.785Z,9.40
2023-04-18T21:54:47.167Z,9.30
2023-04-18T21:57:55.454Z,9.20
2023-04-18T22:01:05.301Z,9.10
2023-04-18T22:04:14.612Z,9.00
2023-04-18T22:07:24.695Z,8.90
2023-04-18T22:10:34.149Z,8.90
2023-04-18T22:13:44.658Z,8.80
2023-04-18T22:16:54.762Z,8.80
2023-04-18T22:20:04.765Z,8.80
2023-04-18T22:23:13.108Z,8.70
2023-04-18T22:26:21.462Z,8.70
2023-04-18T22:29:29.836Z,8.70
2023-04-18T22:32:39.773Z,8.60
2023-04-18T22:35:49.076Z,8.50
2023-04-18T22:38:57.476Z,8.50
2023-04-18T22:42:06.707Z,8.40
2023-04-18T22:45:15.573Z,8.50
2023-04-18T22:48:25.263Z,8.50
2023-04-18T22:51:34.308Z,8.50
2023-04-18T22:54:43.008Z,8.60
2023-04-18T22:57:51.453Z,8.50
2023-04-18T23:01:00.972Z,8.40
2023-04-18T23:04:11.110Z,8.30
2023-04-18T23:07:19.828Z,8.20
2023-04-18T23:10:28.306Z,8.20
2023-04-18T23:13:36.649Z,8.20
2023-04-18T23:16:45.044Z,8.30
2023-04-18T23:19:54.850Z,8.30
2023-04-18T23:23:03.564Z,8.10
2023-04-18T23:26:14.666Z,8.20
2023-04-18T23:29:23.041Z,8.00
2023-04-18T23:32:31.499Z,7.90
2023-04-18T23:35:41.233Z,7.80
2023-04-18T23:38:49.654Z,7.70
2023-04-18T23:41:58.373Z,7.90
2023-04-18T23:45:07.423Z,7.90
2023-04-18T23:48:15.723Z,8.00
2023-04-18T23:51:26.240Z,8.00
2023-04-18T23:54:34.605Z,8.00
2023-04-18T23:57:42.988Z,7.90
